Time;durP1;ratioP1;P1;durP2;ratioP2;P2;SDS_P1;SDS_P2;PMS_P1;PMS_P2;Temp;Humidity;BMP_temperature;BMP_pressure;BME280_temperature;BME280_humidity;BME280_pressure;Samples;Min_cycle;Max_cycle;Signal;HPM_P1;HPM_P2
2022/05/02 00:00:53;;;;;;;17.30;13.07;;;;;;;11.05;63.51;97415.22;6125052;23;20204;-81
2022/05/02 00:03:20;;;;;;;16.52;13.93;;;;;;;11.06;63.59;97406.38;6067256;23;20584;-82
2022/05/02 00:05:46;;;;;;;18.92;14.68;;;;;;;11.05;64.05;97402.19;6123770;23;20222;-81
2022/05/02 00:08:11;;;;;;;22.48;16.75;;;;;;;11.17;65.07;97409.91;6060319;23;20320;-82
2022/05/02 00:10:37;;;;;;;19.00;14.43;;;;;;;11.20;64.29;97409.44;6049890;23;20511;-81
2022/05/02 00:13:03;;;;;;;20.15;13.93;;;;;;;11.27;64.47;97401.44;6049729;23;20617;-81
2022/05/02 00:15:29;;;;;;;17.17;14.50;;;;;;;11.27;64.46;97394.38;6052137;23;20352;-81
2022/05/02 00:17:58;;;;;;;20.77;14.48;;;;;;;11.25;64.38;97386.81;6070785;23;20280;-82
2022/05/02 00:20:24;;;;;;;18.40;14.30;;;;;;;11.30;64.08;97393.91;6048601;23;20172;-82
2022/05/02 00:22:50;;;;;;;17.77;13.90;;;;;;;11.25;64.00;97383.41;6047052;23;20143;-82
2022/05/02 00:25:15;;;;;;;20.00;14.70;;;;;;;11.14;64.14;97384.31;6091592;23;20649;-82
2022/05/02 00:27:42;;;;;;;17.75;14.40;;;;;;;11.05;63.70;97384.75;6091285;23;20598;-82
2022/05/02 00:30:09;;;;;;;20.05;14.07;;;;;;;11.01;63.80;97381.03;6093270;23;20546;-82
2022/05/02 00:32:35;;;;;;;19.63;15.48;;;;;;;10.98;63.65;97381.53;6105607;22;20194;-80
2022/05/02 00:35:03;;;;;;;20.85;15.02;;;;;;;10.93;64.24;97368.44;6045284;23;20247;-80
2022/05/02 00:37:29;;;;;;;21.80;16.45;;;;;;;10.93;65.45;97360.63;6073498;23;20093;-81
2022/05/02 00:39:55;;;;;;;20.60;15.55;;;;;;;10.97;64.93;97360.94;6080172;23;20585;-81
2022/05/02 00:42:20;;;;;;;18.70;14.23;;;;;;;10.96;64.54;97361.97;6089131;23;20224;-81
2022/05/02 00:44:46;;;;;;;21.88;16.35;;;;;;;10.88;64.73;97360.56;6083367;23;20338;-79
2022/05/02 00:47:15;;;;;;;19.42;15.20;;;;;;;10.89;65.10;97359.53;6088761;23;20168;-80
2022/05/02 00:49:41;;;;;;;18.65;14.75;;;;;;;10.92;65.19;97356.44;6110899;23;20183;-81
2022/05/02 00:52:07;;;;;;;20.20;15.32;;;;;;;10.99;65.28;97356.28;6072189;23;20166;-82
2022/05/02 00:54:33;;;;;;;20.70;14.82;;;;;;;10.96;65.15;97351.53;6104161;23;20563;-81
2022/05/02 00:56:59;;;;;;;17.35;14.38;;;;;;;10.90;65.24;97345.50;6092604;23;20266;-81
2022/05/02 00:59:26;;;;;;;20.80;16.52;;;;;;;11.00;64.90;97356.03;6103323;23;20247;-81
2022/05/02 01:01:52;;;;;;;19.20;14.40;;;;;;;11.08;65.55;97364.47;6086683;23;20298;-82
2022/05/02 01:04:17;;;;;;;19.92;14.68;;;;;;;11.06;65.31;97357.66;6040138;23;20895;-82
2022/05/02 01:09:28;;;;;;;16.95;13.18;;;;;;;11.11;63.96;97358.78;6120734;23;20156;-82
2022/05/02 01:11:55;;;;;;;17.13;13.13;;;;;;;11.10;63.75;97367.59;6121917;23;20183;-83
2022/05/02 01:14:20;;;;;;;16.95;12.48;;;;;;;11.04;63.77;97358.94;6060661;23;20235;-82
2022/05/02 01:16:46;;;;;;;15.30;12.05;;;;;;;11.00;63.83;97358.66;6062083;23;20267;-82
2022/05/02 01:19:11;;;;;;;15.68;12.70;;;;;;;10.98;63.97;97352.09;6096277;23;20226;-82
2022/05/02 01:21:38;;;;;;;19.17;13.77;;;;;;;10.97;63.88;97353.91;6121515;23;20360;-82
2022/05/02 01:24:04;;;;;;;17.23;13.52;;;;;;;11.03;64.74;97359.97;6096182;23;20082;-82
2022/05/02 01:26:30;;;;;;;17.90;12.68;;;;;;;11.00;64.67;97350.84;6147758;23;20166;-82
2022/05/02 01:28:58;;;;;;;20.98;15.57;;;;;;;11.00;64.70;97356.03;6095846;23;20164;-82
2022/05/02 01:31:23;;;;;;;18.95;14.20;;;;;;;11.05;65.14;97355.28;6089140;23;20310;-82
2022/05/02 01:33:49;;;;;;;20.25;15.50;;;;;;;11.08;64.99;97352.22;6061362;23;20184;-82
2022/05/02 01:36:17;;;;;;;18.15;13.43;;;;;;;11.08;65.20;97349.59;6096290;23;20185;-82
2022/05/02 01:38:42;;;;;;;20.73;14.93;;;;;;;11.12;65.36;97349.91;6121254;23;20526;-82
2022/05/02 01:41:09;;;;;;;24.83;15.05;;;;;;;11.06;65.21;97347.25;6148036;23;20258;-82
2022/05/02 01:43:35;;;;;;;20.48;15.20;;;;;;;11.09;65.21;97347.78;6061451;23;20555;-82
2022/05/02 01:46:01;;;;;;;19.30;14.52;;;;;;;11.04;64.96;97346.69;6086403;23;20254;-82
2022/05/02 01:48:27;;;;;;;21.42;15.40;;;;;;;11.02;65.36;97345.38;6097107;23;20109;-82
2022/05/02 01:50:53;;;;;;;20.02;16.00;;;;;;;11.03;65.53;97352.16;6061937;23;20172;-82
2022/05/02 01:53:19;;;;;;;21.60;16.45;;;;;;;10.99;65.14;97351.06;6121957;23;20191;-81
2022/05/02 01:55:45;;;;;;;20.15;14.63;;;;;;;10.95;64.75;97345.56;6115072;23;20214;-81
2022/05/02 01:58:10;;;;;;;20.13;14.90;;;;;;;10.91;64.80;97344.44;6149595;23;20183;-81
2022/05/02 02:00:37;;;;;;;19.17;14.27;;;;;;;10.87;65.15;97340.75;6063809;23;20168;-81
2022/05/02 02:03:06;;;;;;;19.70;15.07;;;;;;;10.73;64.97;97340.31;6092076;23;20093;-81
2022/05/02 02:05:49;;;;;;;18.65;14.82;;;;;;;10.71;64.67;97338.97;6102376;23;20140;-81
2022/05/02 02:08:20;;;;;;;19.67;14.77;;;;;;;10.52;65.04;97341.88;6056768;23;20279;-81
2022/05/02 02:10:46;;;;;;;21.73;15.27;;;;;;;10.54;65.00;97336.41;6067281;23;20194;-80
2022/05/02 02:13:12;;;;;;;20.95;14.20;;;;;;;10.55;65.30;97335.41;6116504;23;20344;-81
2022/05/02 02:15:38;;;;;;;19.58;14.98;;;;;;;10.55;65.39;97340.59;6081369;23;20270;-82
2022/05/02 02:18:03;;;;;;;18.40;14.05;;;;;;;10.51;65.63;97334.31;6079754;23;20585;-82
2022/05/02 02:20:29;;;;;;;19.67;14.18;;;;;;;10.55;65.58;97333.56;6116473;23;20178;-81
2022/05/02 02:22:55;;;;;;;22.75;14.45;;;;;;;10.56;65.75;97335.16;6090891;23;20183;-81
2022/05/02 02:25:21;;;;;;;22.05;16.45;;;;;;;10.57;65.74;97334.09;6055464;23;20145;-81
2022/05/02 02:27:46;;;;;;;21.50;16.08;;;;;;;10.56;65.68;97329.16;6045508;23;20258;-81
2022/05/02 02:30:12;;;;;;;22.20;14.73;;;;;;;10.60;65.83;97332.84;6088274;23;20222;-81
2022/05/02 02:32:37;;;;;;;25.63;15.32;;;;;;;10.59;66.42;97337.28;6065155;23;20221;-82
2022/05/02 02:35:03;;;;;;;20.92;15.30;;;;;;;10.62;65.95;97336.78;6092766;23;20062;-81
2022/05/02 02:37:29;;;;;;;22.20;15.55;;;;;;;10.63;65.81;97325.34;6091604;23;20630;-82
2022/05/02 02:39:54;;;;;;;22.38;15.82;;;;;;;10.63;65.94;97327.94;6080066;23;20191;-82
2022/05/02 02:42:22;;;;;;;20.45;14.98;;;;;;;10.64;65.78;97328.72;6081948;23;20316;-81
2022/05/02 02:44:48;;;;;;;22.63;16.30;;;;;;;10.64;65.82;97332.16;6093242;23;20172;-82
2022/05/02 02:47:13;;;;;;;21.70;15.65;;;;;;;10.59;66.05;97321.66;6076858;23;20608;-82
2022/05/02 02:49:39;;;;;;;23.58;16.80;;;;;;;10.59;66.15;97324.28;6116844;23;20176;-81
2022/05/02 02:52:05;;;;;;;20.75;14.43;;;;;;;10.66;65.62;97326.69;6077817;23;20633;-82
2022/05/02 02:54:30;;;;;;;24.10;16.88;;;;;;;10.70;66.23;97324.41;6053814;23;20137;-82
2022/05/02 02:56:56;;;;;;;22.13;15.10;;;;;;;10.70;66.58;97321.78;6092579;23;20343;-82
2022/05/02 02:59:21;;;;;;;23.63;16.33;;;;;;;10.70;66.89;97319.97;6089387;23;20256;-80
2022/05/02 03:01:47;;;;;;;25.05;17.17;;;;;;;10.72;66.78;97319.72;6104010;23;20667;-81
2022/05/02 03:06:58;;;;;;;23.27;15.98;;;;;;;10.68;66.81;97311.63;6115114;23;20288;-81
2022/05/02 03:09:23;;;;;;;22.88;15.43;;;;;;;10.72;65.85;97307.50;6110430;23;20218;-82
2022/05/02 03:11:49;;;;;;;23.85;15.73;;;;;;;10.75;66.11;97306.22;6094817;23;20645;-82
2022/05/02 03:14:14;;;;;;;21.73;15.02;;;;;;;10.77;65.87;97307.56;6095589;23;20058;-82
2022/05/02 03:16:40;;;;;;;19.92;13.93;;;;;;;10.77;65.35;97304.16;6110472;23;20170;-82
2022/05/02 03:19:05;;;;;;;21.40;15.00;;;;;;;10.73;65.85;97300.47;6060891;23;20184;-82
2022/05/02 03:21:31;;;;;;;22.38;14.77;;;;;;;10.76;65.72;97305.19;6095511;23;20149;-82
2022/05/02 03:23:56;;;;;;;18.67;13.43;;;;;;;10.77;65.51;97311.97;6093478;23;20145;-82
2022/05/02 03:26:21;;;;;;;18.95;13.55;;;;;;;10.76;65.67;97302.59;6085253;23;20082;-83
2022/05/02 03:28:47;;;;;;;19.52;14.02;;;;;;;10.67;65.00;97291.81;6119901;23;20195;-83
2022/05/02 03:31:12;;;;;;;16.70;12.40;;;;;;;10.66;65.34;97295.47;6086048;23;20546;-83
2022/05/02 03:33:38;;;;;;;18.98;14.20;;;;;;;10.67;65.15;97300.41;6063506;23;20634;-83
2022/05/02 03:36:04;;;;;;;18.75;14.05;;;;;;;10.66;65.10;97301.44;6060828;23;20208;-83
2022/05/02 03:38:29;;;;;;;20.73;14.57;;;;;;;10.63;65.31;97294.09;6061255;23;20230;-83
2022/05/02 03:40:55;;;;;;;18.00;13.73;;;;;;;10.65;65.05;97292.03;6084647;23;20264;-83
2022/05/02 03:43:20;;;;;;;21.30;14.68;;;;;;;10.62;65.29;97295.13;6095865;23;20219;-82
2022/05/02 03:45:46;;;;;;;21.38;14.85;;;;;;;10.62;65.37;97289.91;6119891;23;20179;-81
2022/05/02 03:48:11;;;;;;;21.50;14.85;;;;;;;10.64;65.65;97287.06;6061462;23;20335;-83
2022/05/02 03:50:37;;;;;;;21.65;15.73;;;;;;;10.61;66.02;97290.97;6096245;23;20535;-83
2022/05/02 03:53:02;;;;;;;22.67;15.52;;;;;;;10.62;65.48;97289.91;6095602;23;20188;-82
2022/05/02 03:55:28;;;;;;;21.73;15.63;;;;;;;10.60;65.85;97289.38;6089906;23;20291;-82
2022/05/02 03:57:53;;;;;;;22.67;15.40;;;;;;;10.54;66.29;97279.13;6085713;23;20258;-82
2022/05/02 04:00:18;;;;;;;21.23;15.35;;;;;;;10.55;65.94;97288.53;6122027;23;20238;-82
2022/05/02 04:02:44;;;;;;;20.05;14.73;;;;;;;10.57;65.67;97287.25;6096785;23;20645;-82
2022/05/02 04:05:09;;;;;;;21.38;16.10;;;;;;;10.49;65.66;97275.44;6120461;23;20245;-82
2022/05/02 04:07:35;;;;;;;18.42;13.38;;;;;;;10.54;65.37;97282.53;6056349;23;20149;-82
2022/05/02 04:10:01;;;;;;;19.98;14.38;;;;;;;10.55;65.64;97280.72;6045918;23;20222;-82
2022/05/02 04:12:27;;;;;;;21.17;14.82;;;;;;;10.53;65.29;97285.38;6119616;23;20331;-82
2022/05/02 04:14:52;;;;;;;19.42;14.10;;;;;;;10.53;65.56;97288.75;6120735;23;20278;-82
2022/05/02 04:17:18;;;;;;;18.67;13.60;;;;;;;10.57;65.54;97287.25;6095651;23;20076;-82
2022/05/02 04:19:43;;;;;;;20.60;14.25;;;;;;;10.57;65.29;97281.25;6061633;23;20250;-83
2022/05/02 04:22:09;;;;;;;19.55;13.85;;;;;;;10.56;65.67;97288.28;6060101;23;20192;-83
2022/05/02 04:24:34;;;;;;;16.98;12.32;;;;;;;10.58;65.37;97285.44;6094701;23;20171;-83
2022/05/02 04:26:59;;;;;;;23.13;15.23;;;;;;;10.53;65.86;97283.56;6120523;23;20271;-83
2022/05/02 04:29:25;;;;;;;19.15;15.57;;;;;;;10.57;65.46;97295.06;6121160;23;20167;-82
2022/05/02 04:31:51;;;;;;;21.17;14.90;;;;;;;10.61;65.45;97298.78;6100033;23;20221;-82
2022/05/02 04:34:16;;;;;;;21.65;14.80;;;;;;;10.58;65.67;97288.84;6062361;23;20251;-83
2022/05/02 04:36:42;;;;;;;22.38;14.10;;;;;;;10.62;65.46;97294.34;6121845;23;20195;-82
2022/05/02 04:39:07;;;;;;;22.58;16.00;;;;;;;10.66;65.40;97295.47;6062239;23;20180;-83
2022/05/02 04:41:32;;;;;;;21.02;14.70;;;;;;;10.65;65.54;97297.25;6097272;23;20176;-83
2022/05/02 04:43:58;;;;;;;20.35;15.35;;;;;;;10.65;65.21;97289.44;6097174;23;20570;-83
2022/05/02 04:46:23;;;;;;;22.20;16.58;;;;;;;10.73;65.99;97290.84;6097170;23;20224;-83
2022/05/02 04:48:49;;;;;;;19.05;13.85;;;;;;;10.80;65.48;97290.66;6097578;23;20171;-83
2022/05/02 04:51:14;;;;;;;25.77;17.88;;;;;;;10.81;65.70;97281.81;6096918;23;20171;-83
2022/05/02 04:53:40;;;;;;;23.05;17.73;;;;;;;10.92;65.29;97283.50;6087470;23;20164;-83
2022/05/02 04:56:05;;;;;;;25.83;16.25;;;;;;;11.00;65.20;97290.91;6086724;23;20180;-83
2022/05/02 04:58:31;;;;;;;23.70;16.70;;;;;;;11.05;65.65;97290.16;6122495;23;20390;-83
2022/05/02 05:00:56;;;;;;;23.70;16.42;;;;;;;11.12;65.75;97293.38;6121549;23;20324;-83
2022/05/02 05:03:22;;;;;;;24.63;16.58;;;;;;;11.09;65.89;97291.25;6095994;23;20179;-83
2022/05/02 05:05:48;;;;;;;26.17;16.17;;;;;;;11.14;65.88;97291.31;6095182;23;20523;-83
2022/05/02 05:08:14;;;;;;;20.30;13.77;;;;;;;11.21;65.58;97291.13;6095345;23;20242;-83
2022/05/02 05:11:23;;;;;;;23.00;14.90;;;;;;;11.06;65.94;97289.13;6096394;23;20133;-83
2022/05/02 05:17:00;;;;;;;21.60;15.63;;;;;;;11.27;65.92;97284.91;6080213;23;20218;-83
2022/05/02 05:19:44;;;;;;;24.27;15.70;;;;;;;11.16;65.84;97285.84;6095470;23;20180;-83
2022/05/02 05:22:28;;;;;;;23.85;14.90;;;;;;;11.21;66.09;97286.69;6061774;23;20280;-83
2022/05/02 05:25:04;;;;;;;21.63;15.63;;;;;;;11.23;65.58;97282.00;6085384;23;20171;-83
2022/05/02 05:27:48;;;;;;;21.40;14.90;;;;;;;11.23;66.14;97281.22;6110090;23;20149;-82
2022/05/02 05:30:19;;;;;;;23.65;15.43;;;;;;;11.37;66.11;97281.63;6096109;23;20250;-83
2022/05/02 05:33:04;;;;;;;22.80;14.65;;;;;;;11.33;66.09;97286.56;6063462;23;20216;-83
2022/05/02 05:35:39;;;;;;;20.08;14.98;;;;;;;11.53;66.20;97288.56;6121695;23;20208;-83
2022/05/02 05:38:33;;;;;;;22.40;15.85;;;;;;;11.39;66.09;97282.16;6149296;23;20318;-83
2022/05/02 05:41:26;;;;;;;24.40;14.32;;;;;;;11.52;66.14;97281.00;6108692;23;20280;-83
2022/05/02 05:43:58;;;;;;;22.42;15.25;;;;;;;11.70;65.58;97278.00;5999798;23;20624;-83
2022/05/02 05:46:40;;;;;;;21.10;14.18;;;;;;;11.79;65.83;97286.19;6096562;23;20164;-83
2022/05/02 05:49:18;;;;;;;23.17;15.27;;;;;;;11.86;65.77;97283.34;6086880;23;20149;-83
2022/05/02 05:51:51;;;;;;;21.27;15.23;;;;;;;11.98;65.30;97287.38;6122124;23;20153;-83
2022/05/02 05:54:23;;;;;;;22.40;16.27;;;;;;;12.09;65.04;97288.22;6119958;23;20188;-83
2022/05/02 05:57:10;;;;;;;20.10;15.40;;;;;;;12.15;65.65;97284.63;6120746;23;20405;-82
2022/05/02 05:59:57;;;;;;;21.38;15.50;;;;;;;12.14;65.29;97283.03;6148871;23;20223;-80
2022/05/02 06:02:23;;;;;;;21.67;15.43;;;;;;;12.26;65.08;97285.47;6121881;23;20242;-82
2022/05/02 06:04:50;;;;;;;20.95;15.30;;;;;;;12.40;65.14;97279.81;6096976;23;20500;-83
2022/05/02 06:07:20;;;;;;;18.92;14.55;;;;;;;12.44;65.16;97276.44;6120886;23;20156;-83
2022/05/02 06:09:48;;;;;;;19.70;13.23;;;;;;;12.70;64.51;97276.56;6042470;23;20172;-82
2022/05/02 06:12:14;;;;;;;18.17;13.07;;;;;;;12.96;64.16;97274.81;6119074;23;20179;-80
2022/05/02 06:20:12;;;;;;;17.23;13.17;;;;;;;13.41;63.39;97270.75;6123033;23;20265;-83
2022/05/02 06:22:42;;;;;;;19.35;13.25;;;;;;;13.36;62.56;97268.13;6057079;23;20794;-81
2022/05/02 06:25:08;;;;;;;22.33;13.07;;;;;;;13.51;62.72;97277.06;6084086;23;20098;-81
2022/05/02 06:27:33;;;;;;;18.17;12.45;;;;;;;13.59;61.92;97279.13;6120941;23;20616;-81
2022/05/02 06:30:03;;;;;;;15.90;10.93;;;;;;;13.80;61.07;97285.19;6102307;23;20137;-78
2022/05/02 06:32:35;;;;;;;15.00;11.63;;;;;;;14.01;60.41;97276.25;6143094;23;20224;-81
2022/05/02 06:35:01;;;;;;;15.50;11.35;;;;;;;14.41;59.46;97272.00;6090638;23;20639;-80
2022/05/02 06:37:47;;;;;;;20.15;15.35;;;;;;;14.29;58.89;97282.00;6121742;23;20256;-81
2022/05/02 06:40:25;;;;;;;14.63;11.48;;;;;;;13.84;60.11;97286.22;6119936;23;20145;-82
2022/05/02 06:43:02;;;;;;;16.27;12.63;;;;;;;13.83;60.66;97279.44;6085597;23;20172;-82
2022/05/02 06:45:48;;;;;;;18.35;13.23;;;;;;;13.84;60.36;97294.06;6086119;23;20159;-82
2022/05/02 06:48:55;;;;;;;21.38;14.68;;;;;;;13.93;60.41;97289.91;6094395;23;20254;-82
2022/05/02 06:51:37;;;;;;;14.20;10.68;;;;;;;14.18;59.26;97290.91;6129672;23;20313;-83
2022/05/02 06:54:05;;;;;;;13.43;10.57;;;;;;;14.08;60.13;97296.16;6117338;23;20180;-82
2022/05/02 06:56:45;;;;;;;18.38;12.02;;;;;;;14.04;60.15;97280.19;6118347;23;20195;-81
2022/05/02 06:59:35;;;;;;;13.95;10.30;;;;;;;14.53;58.97;97290.06;6086764;23;20193;-81
2022/05/02 07:02:10;;;;;;;14.75;11.40;;;;;;;14.42;59.20;97281.41;6086665;23;20569;-82
2022/05/02 07:04:44;;;;;;;14.40;10.80;;;;;;;14.49;58.95;97290.84;6084605;23;20641;-85
2022/05/02 07:07:19;;;;;;;15.13;10.70;;;;;;;14.76;58.63;97288.69;6061024;23;20237;-80
2022/05/02 07:09:47;;;;;;;13.52;10.25;;;;;;;15.15;57.18;97292.47;6124526;23;20623;-81
2022/05/02 07:12:19;;;;;;;11.73;10.30;;;;;;;15.17;57.47;97291.13;6063552;23;20202;-81
2022/05/02 07:15:03;;;;;;;14.38;10.60;;;;;;;14.94;56.90;97292.56;6064638;23;20602;-80
2022/05/02 07:17:47;;;;;;;12.00;9.15;;;;;;;15.45;56.89;97293.31;6116249;23;20567;-81
2022/05/02 07:20:19;;;;;;;11.90;9.63;;;;;;;15.73;55.69;97297.06;6149891;23;20191;-81
2022/05/02 07:22:53;;;;;;;10.43;8.95;;;;;;;16.07;54.55;97291.81;6122575;23;20246;-80
2022/05/02 07:25:22;;;;;;;13.55;9.82;;;;;;;16.32;54.64;97305.00;6148163;23;20234;-81
2022/05/02 07:28:03;;;;;;;11.85;9.50;;;;;;;16.40;54.03;97304.38;6122392;23;20246;-80
2022/05/02 07:30:29;;;;;;;11.63;9.40;;;;;;;16.43;53.57;97298.56;6122090;23;20207;-80
2022/05/02 07:32:55;;;;;;;10.80;8.60;;;;;;;16.43;53.51;97293.31;6099303;23;20184;-83
2022/05/02 07:35:21;;;;;;;11.15;9.27;;;;;;;16.44;53.79;97295.66;6097063;23;20161;-80
2022/05/02 07:37:47;;;;;;;10.30;7.95;;;;;;;16.71;53.11;97296.94;6066253;23;20184;-81
2022/05/02 07:40:16;;;;;;;10.23;8.95;;;;;;;16.81;52.18;97298.66;6122304;23;20645;-81
2022/05/02 07:42:43;;;;;;;13.82;9.60;;;;;;;16.97;52.38;97291.41;6115227;23;20169;-82
2022/05/02 07:45:10;;;;;;;11.57;9.43;;;;;;;17.16;51.39;97299.31;6102237;23;20369;-81
2022/05/02 07:47:37;;;;;;;9.70;8.70;;;;;;;17.43;51.20;97288.16;6124196;23;20168;-82
2022/05/02 07:50:05;;;;;;;11.82;8.77;;;;;;;17.56;51.13;97297.97;6063858;23;20183;-81
2022/05/02 07:52:34;;;;;;;9.38;8.10;;;;;;;17.73;50.54;97296.66;6122300;23;20248;-84
2022/05/02 07:55:01;;;;;;;9.35;8.40;;;;;;;18.19;50.00;97300.41;6089020;23;20516;-81
2022/05/02 07:57:27;;;;;;;10.25;8.48;;;;;;;18.51;48.74;97300.34;6122227;23;20234;-80
2022/05/02 07:59:55;;;;;;;10.23;9.23;;;;;;;18.44;47.37;97299.97;6123463;23;20164;-82
2022/05/02 08:02:22;;;;;;;10.85;9.48;;;;;;;18.77;47.07;97299.09;6089422;23;20173;-81
2022/05/02 08:04:47;;;;;;;9.75;8.35;;;;;;;18.55;46.91;97294.50;6098056;23;20527;-82
2022/05/02 08:07:24;;;;;;;11.50;8.77;;;;;;;18.49;47.79;97302.50;6060111;23;20198;-83
2022/05/02 08:10:21;;;;;;;9.00;8.02;;;;;;;18.51;47.35;97296.94;6111195;23;20156;-81
2022/05/02 08:13:05;;;;;;;9.48;8.32;;;;;;;18.44;47.43;97301.78;6150558;23;20270;-83
2022/05/02 08:15:57;;;;;;;7.78;6.57;;;;;;;18.82;47.49;97302.44;6089390;23;20225;-82
2022/05/02 08:18:58;;;;;;;10.50;8.38;;;;;;;18.28;47.21;97302.09;6090249;23;20145;-82
2022/05/02 08:21:29;;;;;;;11.23;8.25;;;;;;;18.30;46.99;97301.78;6072115;23;20254;-81
2022/05/02 08:27:31;;;;;;;9.75;8.50;;;;;;;18.51;47.45;97297.72;6151454;23;20222;-81
2022/05/02 08:30:03;;;;;;;11.20;8.40;;;;;;;18.71;47.93;97303.66;6110126;23;20168;-82
2022/05/02 08:32:49;;;;;;;9.88;8.80;;;;;;;18.50;47.31;97293.50;6142994;23;20190;-80
2022/05/02 08:35:29;;;;;;;9.57;8.18;;;;;;;18.97;47.11;97290.78;6098298;23;20215;-81
2022/05/02 08:38:17;;;;;;;10.98;8.05;;;;;;;19.13;46.89;97288.59;6090300;23;20167;-80
2022/05/02 08:40:53;;;;;;;8.35;7.47;;;;;;;19.18;46.96;97283.22;6125063;23;20601;-80
2022/05/02 08:43:55;;;;;;;9.30;8.02;;;;;;;18.90;46.86;97293.03;6092034;23;20164;-80
2022/05/02 08:46:44;;;;;;;9.07;7.60;;;;;;;18.81;47.45;97290.28;6106191;23;20153;-81
2022/05/02 08:49:33;;;;;;;9.55;7.85;;;;;;;19.12;47.11;97289.66;6083441;23;20191;-80
2022/05/02 08:52:17;;;;;;;8.75;7.90;;;;;;;19.24;47.19;97295.22;6088963;23;20164;-78
2022/05/02 08:55:06;;;;;;;8.52;7.05;;;;;;;18.99;47.38;97287.84;6094718;23;20274;-80
2022/05/02 08:58:10;;;;;;;9.05;7.68;;;;;;;19.27;46.05;97291.97;6067029;23;20183;-80
2022/05/02 09:00:36;;;;;;;9.07;7.88;;;;;;;19.55;45.05;97289.25;6093003;23;20180;-81
2022/05/02 09:03:36;;;;;;;9.60;8.10;;;;;;;19.11;45.28;97288.13;6115736;23;20627;-82
2022/05/02 09:06:32;;;;;;;10.50;7.82;;;;;;;19.04;44.58;97279.84;6113996;23;20265;-81
2022/05/02 09:09:35;;;;;;;9.38;8.15;;;;;;;19.19;45.58;97290.06;6153279;23;20511;-80
2022/05/02 09:12:22;;;;;;;9.00;7.57;;;;;;;19.33;45.93;97281.31;6149057;23;20011;-81
2022/05/02 09:15:20;;;;;;;8.85;7.95;;;;;;;19.56;46.06;97280.25;6115127;23;20254;-79
2022/05/02 09:18:19;;;;;;;9.93;7.10;;;;;;;20.07;45.69;97280.13;6092241;23;20145;-81
2022/05/02 09:21:16;;;;;;;9.63;7.85;;;;;;;20.38;44.40;97280.88;6148732;23;20248;-80
2022/05/02 09:23:52;;;;;;;9.07;8.13;;;;;;;20.75;44.35;97276.22;6124551;23;20242;-81
2022/05/02 09:26:24;;;;;;;9.05;7.10;;;;;;;21.42;42.26;97271.59;6149143;23;20175;-81
2022/05/02 09:29:08;;;;;;;7.40;6.57;;;;;;;21.99;40.44;97264.53;6089326;23;20220;-82
2022/05/02 09:31:47;;;;;;;7.50;6.07;;;;;;;21.91;39.97;97260.03;6122054;23;20155;-83
2022/05/02 09:34:45;;;;;;;8.23;6.85;;;;;;;21.95;38.80;97256.44;6115939;23;20203;-84
2022/05/02 09:37:14;;;;;;;11.77;7.35;;;;;;;21.79;40.06;97252.72;6091135;23;20175;-81
2022/05/02 09:39:46;;;;;;;7.07;6.45;;;;;;;22.18;37.94;97251.66;6099548;23;20220;-81
2022/05/02 09:42:44;;;;;;;9.32;6.65;;;;;;;21.77;38.88;97257.56;6090783;23;20149;-82
2022/05/02 09:51:55;;;;;;;6.93;6.22;;;;;;;21.20;39.32;97258.50;6125034;23;20164;-80
2022/05/02 09:57:57;;;;;;;9.10;6.78;;;;;;;21.80;37.63;97246.34;6140326;23;20228;-82
2022/05/02 10:03:24;;;;;;;7.03;6.32;;;;;;;21.73;39.36;97238.88;6095502;23;20145;-82
2022/05/02 10:06:10;;;;;;;7.07;6.47;;;;;;;22.57;38.70;97236.53;6122362;23;20275;-81
2022/05/02 10:08:39;;;;;;;7.15;5.95;;;;;;;22.57;36.62;97241.84;6075131;23;20168;-85
2022/05/02 10:11:35;;;;;;;9.10;6.15;;;;;;;22.62;34.81;97231.03;6112671;23;20152;-80
2022/05/02 10:14:42;;;;;;;5.30;4.80;;;;;;;22.34;34.09;97230.72;6047774;23;20317;-82
2022/05/02 10:17:11;;;;;;;6.90;6.18;;;;;;;21.89;36.04;97231.19;6121761;23;20653;-83
2022/05/02 10:19:57;;;;;;;6.57;5.78;;;;;;;22.07;37.07;97232.69;6123136;23;20251;-82
2022/05/02 10:22:30;;;;;;;6.35;5.72;;;;;;;22.44;35.22;97226.94;6091216;23;20165;-81
2022/05/02 10:25:31;;;;;;;7.22;6.40;;;;;;;22.61;37.29;97221.50;6099204;23;20561;-81
2022/05/02 10:28:28;;;;;;;7.28;5.82;;;;;;;22.13;37.01;97230.63;6059784;23;20179;-80
2022/05/02 10:31:05;;;;;;;8.60;7.22;;;;;;;21.35;36.88;97228.91;6110683;23;20192;-80
2022/05/02 10:33:35;;;;;;;7.35;6.60;;;;;;;21.32;38.08;97229.53;6127754;23;20251;-80
2022/05/02 10:36:03;;;;;;;7.70;6.82;;;;;;;21.46;37.08;97213.47;6060158;23;20650;-82
2022/05/02 10:38:30;;;;;;;8.10;6.60;;;;;;;21.54;37.96;97225.16;6094898;23;20359;-80
2022/05/02 10:41:07;;;;;;;7.38;6.68;;;;;;;21.27;37.14;97224.41;6115659;23;20352;-82
2022/05/02 10:43:36;;;;;;;7.28;6.57;;;;;;;21.42;37.46;97209.88;6091281;23;20157;-79
2022/05/02 10:46:01;;;;;;;6.38;5.72;;;;;;;21.68;37.75;97215.19;6126131;23;20156;-80
2022/05/02 10:48:35;;;;;;;7.07;6.38;;;;;;;21.30;37.58;97218.47;6099006;23;20184;-82
2022/05/02 10:51:22;;;;;;;7.18;6.47;;;;;;;21.38;37.56;97207.09;6122892;23;20184;-82
2022/05/02 10:53:58;;;;;;;7.70;6.50;;;;;;;22.53;35.92;97205.66;6112912;23;20319;-82
2022/05/02 10:56:35;;;;;;;8.63;6.53;;;;;;;22.66;34.28;97206.53;6111212;23;20257;-80
2022/05/02 10:59:03;;;;;;;6.65;5.57;;;;;;;22.48;34.69;97203.94;6112361;23;20219;-83
2022/05/02 11:02:04;;;;;;;7.25;5.80;;;;;;;22.19;35.92;97208.16;6062601;23;20324;-80
2022/05/02 11:04:56;;;;;;;7.20;5.80;;;;;;;22.62;34.24;97199.19;6095216;23;20550;-80
2022/05/02 11:07:27;;;;;;;6.45;5.22;;;;;;;22.59;35.70;97197.19;6099704;23;20667;-84
2022/05/02 11:10:07;;;;;;;6.72;6.10;;;;;;;22.97;34.59;97193.63;6088456;23;20327;-83
2022/05/02 11:12:37;;;;;;;7.00;6.10;;;;;;;23.45;36.30;97185.44;6096980;23;20328;-80
2022/05/02 11:15:06;;;;;;;5.97;5.38;;;;;;;23.65;34.27;97195.22;6068245;23;20152;-80
2022/05/02 11:17:56;;;;;;;6.43;5.78;;;;;;;23.00;33.24;97187.66;6094429;23;20487;-80
2022/05/02 11:20:42;;;;;;;9.10;6.95;;;;;;;22.77;34.03;97186.44;6125896;23;20246;-79
2022/05/02 11:23:35;;;;;;;6.43;5.82;;;;;;;22.26;36.00;97194.38;6069978;23;20179;-82
2022/05/02 11:26:17;;;;;;;8.85;6.82;;;;;;;21.55;36.86;97193.06;6120846;23;20243;-81
2022/05/02 11:29:00;;;;;;;8.20;7.40;;;;;;;21.67;36.42;97192.41;6112075;23;20318;-81
2022/05/02 11:31:36;;;;;;;8.85;7.13;;;;;;;22.68;34.69;97181.19;6091244;23;20176;-79
2022/05/02 11:34:20;;;;;;;7.57;6.88;;;;;;;23.43;36.26;97179.69;6103720;23;20200;-79
2022/05/02 11:36:52;;;;;;;7.28;6.35;;;;;;;23.50;35.39;97172.69;6148481;23;20637;-80
2022/05/02 11:39:37;;;;;;;6.95;6.25;;;;;;;23.71;35.55;97183.25;6123519;23;20539;-84
2022/05/02 11:42:06;;;;;;;;;;;;;;;22.82;34.66;97178.28;6092032;23;20164;-81
2022/05/02 11:44:35;;;;;;;7.25;6.50;;;;;;;22.65;34.96;97178.41;6097291;23;20044;-84
2022/05/02 11:47:13;;;;;;;8.38;6.97;;;;;;;22.28;35.55;97183.47;6092802;23;20201;-81
2022/05/02 11:50:05;;;;;;;7.63;6.68;;;;;;;22.75;35.90;97176.16;6100186;23;20472;-81
2022/05/02 11:52:35;;;;;;;8.88;7.10;;;;;;;22.58;35.22;97181.56;6099160;23;20590;-83
2022/05/02 11:55:02;;;;;;;9.05;6.75;;;;;;;23.04;35.36;97179.06;6094461;23;20219;-80
2022/05/02 11:57:37;;;;;;;7.15;6.32;;;;;;;23.05;34.73;97168.13;6093462;23;20259;-80
2022/05/02 12:00:14;;;;;;;8.52;5.97;;;;;;;23.30;33.39;97174.31;6129602;23;20701;-82
2022/05/02 12:02:58;;;;;;;7.38;6.45;;;;;;;23.32;33.24;97171.31;6067043;23;20234;-82
2022/05/02 12:05:27;;;;;;;7.10;6.50;;;;;;;22.88;33.59;97177.00;6125986;23;20226;-82
2022/05/02 12:07:55;;;;;;;7.40;6.43;;;;;;;23.11;34.29;97166.06;6127323;23;20653;-79
2022/05/02 12:10:31;;;;;;;6.10;5.32;;;;;;;22.99;34.19;97169.41;6126524;23;20169;-82
2022/05/02 12:12:57;;;;;;;7.40;5.93;;;;;;;22.17;34.33;97167.88;6099320;23;20148;-84
2022/05/02 12:15:23;;;;;;;7.15;6.43;;;;;;;21.89;34.34;97167.56;6098988;23;20696;-81
2022/05/02 12:17:52;;;;;;;7.75;6.07;;;;;;;21.36;35.04;97166.91;6097975;23;20324;-81